sensor_id;sensor_type;location;lat;lon;timestamp;temperature;humidity
10282;DHT22;5186;59.472;18.048;2023-06-10T00:00:10;6.10;99.90
10282;DHT22;5186;59.472;18.048;2023-06-10T00:02:38;6.00;99.90
10282;DHT22;5186;59.472;18.048;2023-06-10T00:05:04;5.90;99.90
10282;DHT22;5186;59.472;18.048;2023-06-10T00:07:30;5.90;99.90
10282;DHT22;5186;59.472;18.048;2023-06-10T00:09:55;5.90;99.90
10282;DHT22;5186;59.472;18.048;2023-06-10T00:12:22;5.90;99.90
10282;DHT22;5186;59.472;18.048;2023-06-10T00:14:48;5.90;99.90
10282;DHT22;5186;59.472;18.048;2023-06-10T00:17:15;5.80;99.90
10282;DHT22;5186;59.472;18.048;2023-06-10T00:19:41;5.80;99.90
10282;DHT22;5186;59.472;18.048;2023-06-10T00:22:07;5.80;99.90
10282;DHT22;5186;59.472;18.048;2023-06-10T00:24:33;5.70;99.90
10282;DHT22;5186;59.472;18.048;2023-06-10T00:26:59;5.70;99.90
10282;DHT22;5186;59.472;18.048;2023-06-10T00:29:25;5.70;99.90
10282;DHT22;5186;59.472;18.048;2023-06-10T00:31:50;5.70;99.90
10282;DHT22;5186;59.472;18.048;2023-06-10T00:34:19;5.60;99.90
10282;DHT22;5186;59.472;18.048;2023-06-10T00:36:44;5.50;99.90
10282;DHT22;5186;59.472;18.048;2023-06-10T00:39:10;5.50;99.90
10282;DHT22;5186;59.472;18.048;2023-06-10T00:41:36;5.40;99.90
10282;DHT22;5186;59.472;18.048;2023-06-10T00:44:02;5.40;99.90
10282;DHT22;5186;59.472;18.048;2023-06-10T00:46:27;5.30;99.90
10282;DHT22;5186;59.472;18.048;2023-06-10T00:48:53;5.30;99.90
10282;DHT22;5186;59.472;18.048;2023-06-10T00:51:19;5.40;99.90
10282;DHT22;5186;59.472;18.048;2023-06-10T00:53:45;5.30;99.90
10282;DHT22;5186;59.472;18.048;2023-06-10T00:56:11;5.30;99.90
10282;DHT22;5186;59.472;18.048;2023-06-10T00:58:37;5.30;99.90
10282;DHT22;5186;59.472;18.048;2023-06-10T01:01:03;5.30;99.90
10282;DHT22;5186;59.472;18.048;2023-06-10T01:03:29;5.30;99.90
10282;DHT22;5186;59.472;18.048;2023-06-10T01:06:01;5.30;99.90
10282;DHT22;5186;59.472;18.048;2023-06-10T01:08:43;5.30;99.90
10282;DHT22;5186;59.472;18.048;2023-06-10T01:11:27;5.20;99.90
10282;DHT22;5186;59.472;18.048;2023-06-10T01:13:55;5.10;99.90
10282;DHT22;5186;59.472;18.048;2023-06-10T01:16:23;5.00;99.90
10282;DHT22;5186;59.472;18.048;2023-06-10T01:18:49;5.00;99.90
10282;DHT22;5186;59.472;18.048;2023-06-10T01:21:22;5.00;99.90
10282;DHT22;5186;59.472;18.048;2023-06-10T01:23:55;4.80;99.90
10282;DHT22;5186;59.472;18.048;2023-06-10T01:26:24;4.80;99.90
10282;DHT22;5186;59.472;18.048;2023-06-10T01:28:59;4.70;99.90
10282;DHT22;5186;59.472;18.048;2023-06-10T01:31:59;4.70;99.90
10282;DHT22;5186;59.472;18.048;2023-06-10T01:34:27;4.70;99.90
10282;DHT22;5186;59.472;18.048;2023-06-10T01:36:55;4.70;99.90
10282;DHT22;5186;59.472;18.048;2023-06-10T01:39:24;4.70;99.90
10282;DHT22;5186;59.472;18.048;2023-06-10T01:41:52;4.70;99.90
10282;DHT22;5186;59.472;18.048;2023-06-10T01:44:22;4.60;99.90
10282;DHT22;5186;59.472;18.048;2023-06-10T01:46:47;4.60;99.90
10282;DHT22;5186;59.472;18.048;2023-06-10T01:49:13;4.60;99.90
10282;DHT22;5186;59.472;18.048;2023-06-10T01:51:39;4.60;99.90
10282;DHT22;5186;59.472;18.048;2023-06-10T01:54:05;4.60;99.90
10282;DHT22;5186;59.472;18.048;2023-06-10T01:56:31;4.50;99.90
10282;DHT22;5186;59.472;18.048;2023-06-10T01:58:57;4.50;99.90
10282;DHT22;5186;59.472;18.048;2023-06-10T02:01:25;4.50;99.90
10282;DHT22;5186;59.472;18.048;2023-06-10T02:03:51;4.50;99.90
10282;DHT22;5186;59.472;18.048;2023-06-10T02:06:16;4.50;99.90
10282;DHT22;5186;59.472;18.048;2023-06-10T02:08:42;4.50;99.90
10282;DHT22;5186;59.472;18.048;2023-06-10T02:11:08;4.50;99.90
10282;DHT22;5186;59.472;18.048;2023-06-10T02:13:34;4.50;99.90
10282;DHT22;5186;59.472;18.048;2023-06-10T02:16:00;4.40;99.90
10282;DHT22;5186;59.472;18.048;2023-06-10T02:18:26;4.50;99.90
10282;DHT22;5186;59.472;18.048;2023-06-10T02:20:53;4.50;99.90
10282;DHT22;5186;59.472;18.048;2023-06-10T02:23:19;4.50;99.90
10282;DHT22;5186;59.472;18.048;2023-06-10T02:25:45;4.50;99.90
10282;DHT22;5186;59.472;18.048;2023-06-10T02:28:11;4.50;99.90
10282;DHT22;5186;59.472;18.048;2023-06-10T02:30:42;4.50;99.90
10282;DHT22;5186;59.472;18.048;2023-06-10T02:33:08;4.50;99.90
10282;DHT22;5186;59.472;18.048;2023-06-10T02:35:39;4.50;99.90
10282;DHT22;5186;59.472;18.048;2023-06-10T02:38:05;4.60;99.90
10282;DHT22;5186;59.472;18.048;2023-06-10T02:40:30;4.60;99.90
10282;DHT22;5186;59.472;18.048;2023-06-10T02:42:57;4.70;99.90
10282;DHT22;5186;59.472;18.048;2023-06-10T02:45:23;4.70;99.90
10282;DHT22;5186;59.472;18.048;2023-06-10T02:47:49;4.80;99.90
10282;DHT22;5186;59.472;18.048;2023-06-10T02:50:15;4.80;99.90
10282;DHT22;5186;59.472;18.048;2023-06-10T02:52:40;4.90;99.90
10282;DHT22;5186;59.472;18.048;2023-06-10T02:55:06;5.00;99.90
10282;DHT22;5186;59.472;18.048;2023-06-10T02:57:32;5.00;99.90
10282;DHT22;5186;59.472;18.048;2023-06-10T02:59:57;5.10;99.90
10282;DHT22;5186;59.472;18.048;2023-06-10T03:02:24;5.10;99.90
10282;DHT22;5186;59.472;18.048;2023-06-10T03:04:57;5.20;99.90
10282;DHT22;5186;59.472;18.048;2023-06-10T03:07:22;5.30;99.90
10282;DHT22;5186;59.472;18.048;2023-06-10T03:09:48;5.30;99.90
10282;DHT22;5186;59.472;18.048;2023-06-10T03:12:14;5.40;99.90
10282;DHT22;5186;59.472;18.048;2023-06-10T03:14:41;5.50;99.90
10282;DHT22;5186;59.472;18.048;2023-06-10T03:17:07;5.60;99.90
10282;DHT22;5186;59.472;18.048;2023-06-10T03:19:34;5.60;99.90
10282;DHT22;5186;59.472;18.048;2023-06-10T03:22:14;5.70;99.90
10282;DHT22;5186;59.472;18.048;2023-06-10T03:24:40;5.80;99.90
10282;DHT22;5186;59.472;18.048;2023-06-10T03:27:07;5.90;99.90
10282;DHT22;5186;59.472;18.048;2023-06-10T03:29:33;6.00;99.90
10282;DHT22;5186;59.472;18.048;2023-06-10T03:31:58;6.10;99.90
10282;DHT22;5186;59.472;18.048;2023-06-10T03:34:24;6.20;99.90
10282;DHT22;5186;59.472;18.048;2023-06-10T03:36:50;6.30;99.90
10282;DHT22;5186;59.472;18.048;2023-06-10T03:39:15;6.30;99.90
10282;DHT22;5186;59.472;18.048;2023-06-10T03:41:41;6.40;99.90
10282;DHT22;5186;59.472;18.048;2023-06-10T03:44:07;6.50;99.90
10282;DHT22;5186;59.472;18.048;2023-06-10T03:46:32;6.60;99.90
10282;DHT22;5186;59.472;18.048;2023-06-10T03:48:58;6.70;99.90
10282;DHT22;5186;59.472;18.048;2023-06-10T03:51:26;6.80;99.90
10282;DHT22;5186;59.472;18.048;2023-06-10T03:53:51;6.90;99.90
10282;DHT22;5186;59.472;18.048;2023-06-10T03:56:17;7.10;99.90
10282;DHT22;5186;59.472;18.048;2023-06-10T03:58:43;7.20;99.90
10282;DHT22;5186;59.472;18.048;2023-06-10T04:01:08;7.30;99.90
10282;DHT22;5186;59.472;18.048;2023-06-10T04:03:34;7.40;99.90
10282;DHT22;5186;59.472;18.048;2023-06-10T04:05:59;7.50;99.90
10282;DHT22;5186;59.472;18.048;2023-06-10T04:08:25;7.60;99.90
10282;DHT22;5186;59.472;18.048;2023-06-10T04:10:51;7.70;99.90
10282;DHT22;5186;59.472;18.048;2023-06-10T04:13:16;7.80;99.90
10282;DHT22;5186;59.472;18.048;2023-06-10T04:15:42;7.90;99.90
10282;DHT22;5186;59.472;18.048;2023-06-10T04:18:08;8.00;99.90
10282;DHT22;5186;59.472;18.048;2023-06-10T04:20:34;8.10;99.90
10282;DHT22;5186;59.472;18.048;2023-06-10T04:22:59;8.20;99.90
10282;DHT22;5186;59.472;18.048;2023-06-10T04:25:25;8.30;99.90
10282;DHT22;5186;59.472;18.048;2023-06-10T04:27:51;8.40;99.90
10282;DHT22;5186;59.472;18.048;2023-06-10T04:30:17;8.50;99.90
10282;DHT22;5186;59.472;18.048;2023-06-10T04:32:43;8.70;99.90
10282;DHT22;5186;59.472;18.048;2023-06-10T04:35:11;8.80;99.90
10282;DHT22;5186;59.472;18.048;2023-06-10T04:37:38;9.00;99.90
10282;DHT22;5186;59.472;18.048;2023-06-10T04:40:04;9.10;99.90
10282;DHT22;5186;59.472;18.048;2023-06-10T04:42:30;9.20;99.90
10282;DHT22;5186;59.472;18.048;2023-06-10T04:44:56;9.30;99.90
10282;DHT22;5186;59.472;18.048;2023-06-10T04:47:22;9.50;99.90
10282;DHT22;5186;59.472;18.048;2023-06-10T04:49:48;9.60;99.90
10282;DHT22;5186;59.472;18.048;2023-06-10T04:52:14;9.70;99.90
10282;DHT22;5186;59.472;18.048;2023-06-10T04:54:39;9.80;99.90
10282;DHT22;5186;59.472;18.048;2023-06-10T04:57:06;9.90;99.90
10282;DHT22;5186;59.472;18.048;2023-06-10T04:59:33;10.00;99.90
10282;DHT22;5186;59.472;18.048;2023-06-10T05:01:58;10.20;99.90
10282;DHT22;5186;59.472;18.048;2023-06-10T05:04:25;10.40;99.90
10282;DHT22;5186;59.472;18.048;2023-06-10T05:06:50;10.50;99.90
10282;DHT22;5186;59.472;18.048;2023-06-10T05:09:16;10.70;99.90
10282;DHT22;5186;59.472;18.048;2023-06-10T05:11:42;10.80;99.90
10282;DHT22;5186;59.472;18.048;2023-06-10T05:14:07;11.00;99.90
10282;DHT22;5186;59.472;18.048;2023-06-10T05:16:33;11.10;99.90
10282;DHT22;5186;59.472;18.048;2023-06-10T05:18:58;11.10;99.90
10282;DHT22;5186;59.472;18.048;2023-06-10T05:21:24;11.20;99.90
10282;DHT22;5186;59.472;18.048;2023-06-10T05:23:49;11.40;99.90
10282;DHT22;5186;59.472;18.048;2023-06-10T05:26:15;11.50;99.90
10282;DHT22;5186;59.472;18.048;2023-06-10T05:28:43;11.70;99.90
10282;DHT22;5186;59.472;18.048;2023-06-10T05:31:08;11.70;99.90
10282;DHT22;5186;59.472;18.048;2023-06-10T05:33:34;11.80;99.90
10282;DHT22;5186;59.472;18.048;2023-06-10T05:36:00;11.90;99.90
10282;DHT22;5186;59.472;18.048;2023-06-10T05:38:25;12.00;99.90
10282;DHT22;5186;59.472;18.048;2023-06-10T05:40:51;12.00;99.90
10282;DHT22;5186;59.472;18.048;2023-06-10T05:43:16;12.10;99.90
10282;DHT22;5186;59.472;18.048;2023-06-10T05:45:42;12.20;99.90
10282;DHT22;5186;59.472;18.048;2023-06-10T05:48:08;12.30;99.90
10282;DHT22;5186;59.472;18.048;2023-06-10T05:50:34;12.50;99.90
10282;DHT22;5186;59.472;18.048;2023-06-10T05:53:04;12.50;99.90
10282;DHT22;5186;59.472;18.048;2023-06-10T05:55:32;12.60;99.90
10282;DHT22;5186;59.472;18.048;2023-06-10T05:58:00;12.60;99.90
10282;DHT22;5186;59.472;18.048;2023-06-10T06:00:26;12.70;99.90
10282;DHT22;5186;59.472;18.048;2023-06-10T06:02:52;12.80;99.90
10282;DHT22;5186;59.472;18.048;2023-06-10T06:05:19;12.90;99.90
10282;DHT22;5186;59.472;18.048;2023-06-10T06:07:45;13.00;99.90
10282;DHT22;5186;59.472;18.048;2023-06-10T06:10:10;13.00;99.90
10282;DHT22;5186;59.472;18.048;2023-06-10T06:12:36;13.10;99.90
10282;DHT22;5186;59.472;18.048;2023-06-10T06:15:02;13.20;99.90
10282;DHT22;5186;59.472;18.048;2023-06-10T06:17:28;13.30;99.90
10282;DHT22;5186;59.472;18.048;2023-06-10T06:19:54;13.40;99.90
10282;DHT22;5186;59.472;18.048;2023-06-10T06:22:19;13.40;99.90
10282;DHT22;5186;59.472;18.048;2023-06-10T06:24:47;13.50;99.90
10282;DHT22;5186;59.472;18.048;2023-06-10T06:27:13;13.60;99.90
10282;DHT22;5186;59.472;18.048;2023-06-10T06:29:38;13.60;99.90
10282;DHT22;5186;59.472;18.048;2023-06-10T06:32:04;13.70;99.90
10282;DHT22;5186;59.472;18.048;2023-06-10T06:34:30;13.80;99.90
10282;DHT22;5186;59.472;18.048;2023-06-10T06:36:55;14.00;99.90
10282;DHT22;5186;59.472;18.048;2023-06-10T06:39:21;14.10;99.90
10282;DHT22;5186;59.472;18.048;2023-06-10T06:41:46;14.20;99.90
10282;DHT22;5186;59.472;18.048;2023-06-10T06:44:12;14.20;99.90
10282;DHT22;5186;59.472;18.048;2023-06-10T06:46:38;14.30;99.90
10282;DHT22;5186;59.472;18.048;2023-06-10T06:49:04;14.40;99.90
10282;DHT22;5186;59.472;18.048;2023-06-10T06:51:29;14.40;99.90
10282;DHT22;5186;59.472;18.048;2023-06-10T06:53:55;14.40;99.90
10282;DHT22;5186;59.472;18.048;2023-06-10T06:56:24;14.50;99.90
10282;DHT22;5186;59.472;18.048;2023-06-10T06:58:51;14.60;99.90
10282;DHT22;5186;59.472;18.048;2023-06-10T07:01:17;14.70;99.90
10282;DHT22;5186;59.472;18.048;2023-06-10T07:03:42;14.80;99.90
10282;DHT22;5186;59.472;18.048;2023-06-10T07:06:08;14.80;99.90
10282;DHT22;5186;59.472;18.048;2023-06-10T07:08:33;14.90;99.90
10282;DHT22;5186;59.472;18.048;2023-06-10T07:10:59;14.90;99.90
10282;DHT22;5186;59.472;18.048;2023-06-10T07:13:25;15.00;99.90
10282;DHT22;5186;59.472;18.048;2023-06-10T07:15:50;14.90;99.90
10282;DHT22;5186;59.472;18.048;2023-06-10T07:18:16;15.00;99.90
10282;DHT22;5186;59.472;18.048;2023-06-10T07:20:42;15.10;99.90
10282;DHT22;5186;59.472;18.048;2023-06-10T07:23:08;15.20;99.90
10282;DHT22;5186;59.472;18.048;2023-06-10T07:25:33;15.30;99.90
10282;DHT22;5186;59.472;18.048;2023-06-10T07:27:59;15.40;99.90
10282;DHT22;5186;59.472;18.048;2023-06-10T07:30:24;15.50;99.90
10282;DHT22;5186;59.472;18.048;2023-06-10T07:32:51;15.60;99.90
10282;DHT22;5186;59.472;18.048;2023-06-10T07:35:17;15.70;99.90
10282;DHT22;5186;59.472;18.048;2023-06-10T07:37:42;15.80;99.90
10282;DHT22;5186;59.472;18.048;2023-06-10T07:40:08;15.80;99.90
10282;DHT22;5186;59.472;18.048;2023-06-10T07:42:35;15.80;99.90
10282;DHT22;5186;59.472;18.048;2023-06-10T07:45:02;15.90;99.90
10282;DHT22;5186;59.472;18.048;2023-06-10T07:47:29;16.00;99.90
10282;DHT22;5186;59.472;18.048;2023-06-10T07:49:54;16.10;99.90
10282;DHT22;5186;59.472;18.048;2023-06-10T07:52:20;16.10;99.90
10282;DHT22;5186;59.472;18.048;2023-06-10T07:54:45;16.30;99.60
10282;DHT22;5186;59.472;18.048;2023-06-10T07:57:11;16.40;99.00
10282;DHT22;5186;59.472;18.048;2023-06-10T07:59:37;16.50;98.80
10282;DHT22;5186;59.472;18.048;2023-06-10T08:02:03;16.60;98.70
10282;DHT22;5186;59.472;18.048;2023-06-10T08:04:29;16.70;98.30
10282;DHT22;5186;59.472;18.048;2023-06-10T08:06:56;16.80;97.50
10282;DHT22;5186;59.472;18.048;2023-06-10T08:09:22;16.80;96.70
10282;DHT22;5186;59.472;18.048;2023-06-10T08:11:48;16.90;96.10
10282;DHT22;5186;59.472;18.048;2023-06-10T08:14:15;16.90;96.00
10282;DHT22;5186;59.472;18.048;2023-06-10T08:16:41;17.00;96.20
10282;DHT22;5186;59.472;18.048;2023-06-10T08:19:07;17.10;96.20
10282;DHT22;5186;59.472;18.048;2023-06-10T08:21:34;17.20;96.10
10282;DHT22;5186;59.472;18.048;2023-06-10T08:24:02;17.20;95.90
10282;DHT22;5186;59.472;18.048;2023-06-10T08:26:27;17.30;96.00
10282;DHT22;5186;59.472;18.048;2023-06-10T08:28:53;17.40;95.50
10282;DHT22;5186;59.472;18.048;2023-06-10T08:31:19;17.50;95.30
10282;DHT22;5186;59.472;18.048;2023-06-10T08:33:45;17.50;95.00
10282;DHT22;5186;59.472;18.048;2023-06-10T08:36:11;17.50;95.10
10282;DHT22;5186;59.472;18.048;2023-06-10T08:38:37;17.60;95.50
10282;DHT22;5186;59.472;18.048;2023-06-10T08:41:05;17.60;95.10
10282;DHT22;5186;59.472;18.048;2023-06-10T08:43:45;17.70;95.40
10282;DHT22;5186;59.472;18.048;2023-06-10T08:46:12;17.80;94.80
10282;DHT22;5186;59.472;18.048;2023-06-10T08:48:42;17.90;94.60
10282;DHT22;5186;59.472;18.048;2023-06-10T08:51:11;17.80;94.50
10282;DHT22;5186;59.472;18.048;2023-06-10T08:53:38;17.90;94.40
10282;DHT22;5186;59.472;18.048;2023-06-10T08:56:07;18.00;93.70
10282;DHT22;5186;59.472;18.048;2023-06-10T08:58:34;18.00;93.40
10282;DHT22;5186;59.472;18.048;2023-06-10T09:01:05;18.10;93.30
10282;DHT22;5186;59.472;18.048;2023-06-10T09:03:31;18.20;92.80
10282;DHT22;5186;59.472;18.048;2023-06-10T09:05:57;18.20;92.60
10282;DHT22;5186;59.472;18.048;2023-06-10T09:08:23;18.30;92.20
10282;DHT22;5186;59.472;18.048;2023-06-10T09:10:49;18.30;92.00
10282;DHT22;5186;59.472;18.048;2023-06-10T09:13:15;18.40;92.00
10282;DHT22;5186;59.472;18.048;2023-06-10T09:15:43;18.40;92.10
10282;DHT22;5186;59.472;18.048;2023-06-10T09:18:11;18.40;92.50
10282;DHT22;5186;59.472;18.048;2023-06-10T09:20:38;18.50;92.00
10282;DHT22;5186;59.472;18.048;2023-06-10T09:23:05;18.50;92.10
10282;DHT22;5186;59.472;18.048;2023-06-10T09:25:38;18.60;91.80
10282;DHT22;5186;59.472;18.048;2023-06-10T09:28:04;18.60;91.30
10282;DHT22;5186;59.472;18.048;2023-06-10T09:30:33;18.60;91.60
10282;DHT22;5186;59.472;18.048;2023-06-10T09:33:01;18.70;91.70
10282;DHT22;5186;59.472;18.048;2023-06-10T09:35:28;18.80;91.30
10282;DHT22;5186;59.472;18.048;2023-06-10T09:37:58;18.90;91.10
10282;DHT22;5186;59.472;18.048;2023-06-10T09:40:24;18.90;91.00
10282;DHT22;5186;59.472;18.048;2023-06-10T09:42:55;19.00;91.10
10282;DHT22;5186;59.472;18.048;2023-06-10T09:45:21;19.10;91.00
10282;DHT22;5186;59.472;18.048;2023-06-10T09:47:51;19.10;91.40
10282;DHT22;5186;59.472;18.048;2023-06-10T09:50:17;19.20;91.50
10282;DHT22;5186;59.472;18.048;2023-06-10T09:52:42;19.20;91.30
10282;DHT22;5186;59.472;18.048;2023-06-10T09:55:09;19.20;91.20
10282;DHT22;5186;59.472;18.048;2023-06-10T09:57:36;19.20;91.20
10282;DHT22;5186;59.472;18.048;2023-06-10T10:00:06;19.20;91.30
10282;DHT22;5186;59.472;18.048;2023-06-10T10:02:52;19.20;91.30
10282;DHT22;5186;59.472;18.048;2023-06-10T10:05:20;19.20;90.00
10282;DHT22;5186;59.472;18.048;2023-06-10T10:07:46;19.20;90.50
10282;DHT22;5186;59.472;18.048;2023-06-10T10:10:14;19.20;89.80
10282;DHT22;5186;59.472;18.048;2023-06-10T10:12:40;19.30;89.60
10282;DHT22;5186;59.472;18.048;2023-06-10T10:15:07;19.30;90.30
10282;DHT22;5186;59.472;18.048;2023-06-10T10:17:48;19.40;90.30
10282;DHT22;5186;59.472;18.048;2023-06-10T10:20:17;19.40;90.20
10282;DHT22;5186;59.472;18.048;2023-06-10T10:22:46;19.40;90.40
10282;DHT22;5186;59.472;18.048;2023-06-10T10:25:42;19.30;90.40
10282;DHT22;5186;59.472;18.048;2023-06-10T10:28:09;19.40;90.20
10282;DHT22;5186;59.472;18.048;2023-06-10T10:30:40;19.50;90.70
10282;DHT22;5186;59.472;18.048;2023-06-10T10:33:17;19.50;91.00
10282;DHT22;5186;59.472;18.048;2023-06-10T10:35:44;19.50;90.90
10282;DHT22;5186;59.472;18.048;2023-06-10T10:38:11;19.50;91.40
10282;DHT22;5186;59.472;18.048;2023-06-10T10:40:37;19.60;91.20
10282;DHT22;5186;59.472;18.048;2023-06-10T10:43:03;19.60;91.20
10282;DHT22;5186;59.472;18.048;2023-06-10T10:45:29;19.60;91.20
10282;DHT22;5186;59.472;18.048;2023-06-10T10:47:55;19.60;91.30
10282;DHT22;5186;59.472;18.048;2023-06-10T10:50:22;19.60;91.40
10282;DHT22;5186;59.472;18.048;2023-06-10T10:52:54;19.50;91.20
10282;DHT22;5186;59.472;18.048;2023-06-10T10:55:22;19.50;91.40
10282;DHT22;5186;59.472;18.048;2023-06-10T10:58:14;19.50;91.70
10282;DHT22;5186;59.472;18.048;2023-06-10T11:00:45;19.50;92.10
10282;DHT22;5186;59.472;18.048;2023-06-10T11:03:15;19.40;92.30
10282;DHT22;5186;59.472;18.048;2023-06-10T11:05:46;19.50;92.40
10282;DHT22;5186;59.472;18.048;2023-06-10T11:08:15;19.40;92.10
10282;DHT22;5186;59.472;18.048;2023-06-10T11:10:42;19.40;92.60
10282;DHT22;5186;59.472;18.048;2023-06-10T11:13:19;19.50;92.40
10282;DHT22;5186;59.472;18.048;2023-06-10T11:15:47;19.50;92.30
10282;DHT22;5186;59.472;18.048;2023-06-10T11:20:58;19.50;92.30
10282;DHT22;5186;59.472;18.048;2023-06-10T11:31:36;19.40;92.70
10282;DHT22;5186;59.472;18.048;2023-06-10T11:34:05;19.50;92.50
10282;DHT22;5186;59.472;18.048;2023-06-10T11:36:33;19.60;92.60
10282;DHT22;5186;59.472;18.048;2023-06-10T11:39:01;19.60;92.50
10282;DHT22;5186;59.472;18.048;2023-06-10T11:41:29;19.80;92.90
10282;DHT22;5186;59.472;18.048;2023-06-10T11:43:55;19.80;92.70
10282;DHT22;5186;59.472;18.048;2023-06-10T11:46:24;19.90;92.60
10282;DHT22;5186;59.472;18.048;2023-06-10T11:48:56;19.90;92.60
10282;DHT22;5186;59.472;18.048;2023-06-10T11:51:26;19.90;92.70
10282;DHT22;5186;59.472;18.048;2023-06-10T11:53:52;19.80;92.80
10282;DHT22;5186;59.472;18.048;2023-06-10T11:56:26;19.70;92.60
10282;DHT22;5186;59.472;18.048;2023-06-10T11:58:54;19.70;92.70
10282;DHT22;5186;59.472;18.048;2023-06-10T12:01:21;19.80;92.80
10282;DHT22;5186;59.472;18.048;2023-06-10T12:03:48;19.80;92.80
10282;DHT22;5186;59.472;18.048;2023-06-10T12:06:13;19.90;92.60
10282;DHT22;5186;59.472;18.048;2023-06-10T12:08:43;19.90;92.50
10282;DHT22;5186;59.472;18.048;2023-06-10T12:11:09;19.90;92.00
10282;DHT22;5186;59.472;18.048;2023-06-10T12:13:34;19.80;92.20
10282;DHT22;5186;59.472;18.048;2023-06-10T12:16:09;19.90;92.40
10282;DHT22;5186;59.472;18.048;2023-06-10T12:18:35;19.90;92.20
10282;DHT22;5186;59.472;18.048;2023-06-10T12:21:01;20.00;92.30
10282;DHT22;5186;59.472;18.048;2023-06-10T12:23:28;20.00;92.10
10282;DHT22;5186;59.472;18.048;2023-06-10T12:25:55;20.10;92.10
10282;DHT22;5186;59.472;18.048;2023-06-10T12:28:25;20.10;91.90
10282;DHT22;5186;59.472;18.048;2023-06-10T12:30:51;20.10;91.70
10282;DHT22;5186;59.472;18.048;2023-06-10T12:35:50;20.20;91.70
10282;DHT22;5186;59.472;18.048;2023-06-10T12:38:24;20.20;91.20
10282;DHT22;5186;59.472;18.048;2023-06-10T12:40:52;20.20;91.20
10282;DHT22;5186;59.472;18.048;2023-06-10T12:43:22;20.30;91.20
10282;DHT22;5186;59.472;18.048;2023-06-10T12:45:49;20.30;91.50
10282;DHT22;5186;59.472;18.048;2023-06-10T12:48:19;20.30;91.50
10282;DHT22;5186;59.472;18.048;2023-06-10T12:50:57;20.30;91.50
10282;DHT22;5186;59.472;18.048;2023-06-10T12:53:24;20.40;91.30
10282;DHT22;5186;59.472;18.048;2023-06-10T12:55:50;20.40;91.50
10282;DHT22;5186;59.472;18.048;2023-06-10T12:58:16;20.50;91.50
10282;DHT22;5186;59.472;18.048;2023-06-10T13:00:42;20.50;91.50
10282;DHT22;5186;59.472;18.048;2023-06-10T13:03:09;20.50;91.30
10282;DHT22;5186;59.472;18.048;2023-06-10T13:05:36;20.50;91.50
10282;DHT22;5186;59.472;18.048;2023-06-10T13:08:07;20.60;91.40
10282;DHT22;5186;59.472;18.048;2023-06-10T13:10:33;20.50;91.40
10282;DHT22;5186;59.472;18.048;2023-06-10T13:13:00;20.60;91.50
10282;DHT22;5186;59.472;18.048;2023-06-10T13:15:27;20.60;91.20
10282;DHT22;5186;59.472;18.048;2023-06-10T13:17:52;20.60;91.30
10282;DHT22;5186;59.472;18.048;2023-06-10T13:20:19;20.70;91.20
10282;DHT22;5186;59.472;18.048;2023-06-10T13:22:46;20.70;91.20
10282;DHT22;5186;59.472;18.048;2023-06-10T13:25:11;20.80;91.10
10282;DHT22;5186;59.472;18.048;2023-06-10T13:27:37;20.80;91.00
10282;DHT22;5186;59.472;18.048;2023-06-10T13:30:08;20.90;90.70
10282;DHT22;5186;59.472;18.048;2023-06-10T13:32:34;21.00;90.60
10282;DHT22;5186;59.472;18.048;2023-06-10T13:35:00;21.00;90.50
10282;DHT22;5186;59.472;18.048;2023-06-10T13:37:26;21.00;90.50
10282;DHT22;5186;59.472;18.048;2023-06-10T13:39:51;21.10;90.60
10282;DHT22;5186;59.472;18.048;2023-06-10T13:42:20;21.10;90.40
10282;DHT22;5186;59.472;18.048;2023-06-10T13:44:46;21.10;90.00
10282;DHT22;5186;59.472;18.048;2023-06-10T13:47:13;21.00;90.20
10282;DHT22;5186;59.472;18.048;2023-06-10T13:49:39;21.00;90.20
10282;DHT22;5186;59.472;18.048;2023-06-10T13:52:05;21.00;90.00
10282;DHT22;5186;59.472;18.048;2023-06-10T13:54:31;20.90;89.80
10282;DHT22;5186;59.472;18.048;2023-06-10T13:56:57;20.90;89.40
10282;DHT22;5186;59.472;18.048;2023-06-10T13:59:23;20.90;89.70
10282;DHT22;5186;59.472;18.048;2023-06-10T14:01:48;21.00;89.40
10282;DHT22;5186;59.472;18.048;2023-06-10T14:04:14;21.00;89.40
10282;DHT22;5186;59.472;18.048;2023-06-10T14:06:39;21.10;89.10
10282;DHT22;5186;59.472;18.048;2023-06-10T14:09:05;21.10;89.00
10282;DHT22;5186;59.472;18.048;2023-06-10T14:11:31;21.20;89.00
10282;DHT22;5186;59.472;18.048;2023-06-10T14:13:57;21.20;88.60
10282;DHT22;5186;59.472;18.048;2023-06-10T14:16:23;21.30;88.30
10282;DHT22;5186;59.472;18.048;2023-06-10T14:18:49;21.30;88.30
10282;DHT22;5186;59.472;18.048;2023-06-10T14:21:16;21.20;88.10
10282;DHT22;5186;59.472;18.048;2023-06-10T14:23:41;21.30;88.10
10282;DHT22;5186;59.472;18.048;2023-06-10T14:26:08;21.20;88.30
10282;DHT22;5186;59.472;18.048;2023-06-10T14:28:34;21.20;88.30
10282;DHT22;5186;59.472;18.048;2023-06-10T14:30:59;21.30;88.20
10282;DHT22;5186;59.472;18.048;2023-06-10T14:33:25;21.30;87.80
10282;DHT22;5186;59.472;18.048;2023-06-10T14:35:50;21.30;87.40
10282;DHT22;5186;59.472;18.048;2023-06-10T14:38:16;21.30;87.30
10282;DHT22;5186;59.472;18.048;2023-06-10T14:40:42;21.30;87.30
10282;DHT22;5186;59.472;18.048;2023-06-10T14:43:07;21.30;86.60
10282;DHT22;5186;59.472;18.048;2023-06-10T14:45:36;21.40;86.50
10282;DHT22;5186;59.472;18.048;2023-06-10T14:48:03;21.30;86.20
10282;DHT22;5186;59.472;18.048;2023-06-10T14:50:28;21.40;86.60
10282;DHT22;5186;59.472;18.048;2023-06-10T14:52:54;21.40;86.50
10282;DHT22;5186;59.472;18.048;2023-06-10T14:55:19;21.40;87.10
10282;DHT22;5186;59.472;18.048;2023-06-10T14:57:45;21.40;86.80
10282;DHT22;5186;59.472;18.048;2023-06-10T15:00:11;21.40;86.50
10282;DHT22;5186;59.472;18.048;2023-06-10T15:02:40;21.40;86.70
10282;DHT22;5186;59.472;18.048;2023-06-10T15:05:06;21.40;87.20
10282;DHT22;5186;59.472;18.048;2023-06-10T15:07:32;21.30;87.10
10282;DHT22;5186;59.472;18.048;2023-06-10T15:09:57;21.30;87.00
10282;DHT22;5186;59.472;18.048;2023-06-10T15:12:23;21.20;86.80
10282;DHT22;5186;59.472;18.048;2023-06-10T15:14:50;21.30;86.80
10282;DHT22;5186;59.472;18.048;2023-06-10T15:17:15;21.20;86.90
10282;DHT22;5186;59.472;18.048;2023-06-10T15:19:41;21.30;87.00
10282;DHT22;5186;59.472;18.048;2023-06-10T15:22:06;21.30;86.50
10282;DHT22;5186;59.472;18.048;2023-06-10T15:24:32;21.20;86.20
10282;DHT22;5186;59.472;18.048;2023-06-10T15:26:58;21.30;86.00
10282;DHT22;5186;59.472;18.048;2023-06-10T15:29:23;21.30;85.90
10282;DHT22;5186;59.472;18.048;2023-06-10T15:31:49;21.20;85.80
10282;DHT22;5186;59.472;18.048;2023-06-10T15:34:14;21.20;85.70
10282;DHT22;5186;59.472;18.048;2023-06-10T15:36:40;21.30;86.00
10282;DHT22;5186;59.472;18.048;2023-06-10T15:39:05;21.30;85.60
10282;DHT22;5186;59.472;18.048;2023-06-10T15:41:33;21.40;85.30
10282;DHT22;5186;59.472;18.048;2023-06-10T15:43:59;21.40;85.70
10282;DHT22;5186;59.472;18.048;2023-06-10T15:46:26;21.30;86.00